sensor_id;sensor_type;location;lat;lon;timestamp;pressure;altitude;pressure_sealevel;temperature;humidity
27984;BME280;15317;50.360;8.726;2023-02-11T00:04:02;101372.69;;;0.12;100.00
27984;BME280;15317;50.360;8.726;2023-02-11T00:08:04;101372.56;;;0.15;100.00
27984;BME280;15317;50.360;8.726;2023-02-11T00:12:06;101363.59;;;0.17;100.00
27984;BME280;15317;50.360;8.726;2023-02-11T00:16:11;101364.34;;;0.21;100.00
27984;BME280;15317;50.360;8.726;2023-02-11T00:20:13;101357.13;;;0.24;100.00
27984;BME280;15317;50.360;8.726;2023-02-11T00:24:15;101357.00;;;0.27;100.00
27984;BME280;15317;50.360;8.726;2023-02-11T00:28:17;101356.94;;;0.30;100.00
27984;BME280;15317;50.360;8.726;2023-02-11T00:32:21;101355.03;;;0.34;100.00
27984;BME280;15317;50.360;8.726;2023-02-11T00:36:24;101352.22;;;0.38;100.00
27984;BME280;15317;50.360;8.726;2023-02-11T00:40:26;101358.28;;;0.44;100.00
27984;BME280;15317;50.360;8.726;2023-02-11T00:44:28;101358.09;;;0.48;100.00
27984;BME280;15317;50.360;8.726;2023-02-11T00:48:32;101360.53;;;0.56;100.00
27984;BME280;15317;50.360;8.726;2023-02-11T00:52:34;101355.97;;;0.59;100.00
27984;BME280;15317;50.360;8.726;2023-02-11T00:56:35;101360.28;;;0.63;100.00
27984;BME280;15317;50.360;8.726;2023-02-11T01:00:37;101354.69;;;0.71;100.00
27984;BME280;15317;50.360;8.726;2023-02-11T01:04:41;101359.19;;;0.69;100.00
27984;BME280;15317;50.360;8.726;2023-02-11T01:08:44;101346.78;;;0.68;100.00
27984;BME280;15317;50.360;8.726;2023-02-11T01:12:46;101344.09;;;0.68;100.00
27984;BME280;15317;50.360;8.726;2023-02-11T01:16:48;101347.69;;;0.67;100.00
27984;BME280;15317;50.360;8.726;2023-02-11T01:20:51;101339.59;;;0.68;100.00
27984;BME280;15317;50.360;8.726;2023-02-11T01:24:54;101321.81;;;0.67;100.00
27984;BME280;15317;50.360;8.726;2023-02-11T01:28:55;101332.44;;;0.69;100.00
27984;BME280;15317;50.360;8.726;2023-02-11T01:32:59;101324.34;;;0.72;100.00
27984;BME280;15317;50.360;8.726;2023-02-11T01:37:03;101309.03;;;0.75;100.00
27984;BME280;15317;50.360;8.726;2023-02-11T01:41:06;101300.03;;;0.78;100.00
27984;BME280;15317;50.360;8.726;2023-02-11T01:49:56;101294.97;;;0.95;100.00
27984;BME280;15317;50.360;8.726;2023-02-11T01:54:01;101287.75;;;0.97;100.00
27984;BME280;15317;50.360;8.726;2023-02-11T01:58:22;101280.56;;;0.99;100.00
27984;BME280;15317;50.360;8.726;2023-02-11T02:02:27;101274.38;;;0.97;100.00
27984;BME280;15317;50.360;8.726;2023-02-11T02:06:33;101281.47;;;0.98;100.00
27984;BME280;15317;50.360;8.726;2023-02-11T02:10:40;101284.28;;;0.95;100.00
27984;BME280;15317;50.360;8.726;2023-02-11T02:14:42;101284.06;;;1.01;100.00
27984;BME280;15317;50.360;8.726;2023-02-11T02:18:49;101287.78;;;0.96;100.00
27984;BME280;15317;50.360;8.726;2023-02-11T02:23:18;101293.09;;;0.97;100.00
27984;BME280;15317;50.360;8.726;2023-02-11T02:27:31;101297.56;;;0.97;100.00
27984;BME280;15317;50.360;8.726;2023-02-11T02:31:47;101292.22;;;0.97;100.00
27984;BME280;15317;50.360;8.726;2023-02-11T02:36:03;101283.41;;;0.95;100.00
27984;BME280;15317;50.360;8.726;2023-02-11T02:40:11;101289.63;;;0.95;100.00
27984;BME280;15317;50.360;8.726;2023-02-11T02:44:17;101288.63;;;0.98;100.00
27984;BME280;15317;50.360;8.726;2023-02-11T02:48:26;101297.72;;;0.94;100.00
27984;BME280;15317;50.360;8.726;2023-02-11T02:52:34;101283.50;;;0.92;100.00
27984;BME280;15317;50.360;8.726;2023-02-11T02:56:43;101286.22;;;0.90;100.00
27984;BME280;15317;50.360;8.726;2023-02-11T03:00:54;101281.00;;;0.87;100.00
27984;BME280;15317;50.360;8.726;2023-02-11T03:05:04;101282.84;;;0.85;100.00
27984;BME280;15317;50.360;8.726;2023-02-11T03:09:13;101274.81;;;0.85;100.00
27984;BME280;15317;50.360;8.726;2023-02-11T03:13:19;101267.72;;;0.84;100.00
27984;BME280;15317;50.360;8.726;2023-02-11T03:17:23;101243.78;;;0.81;100.00
27984;BME280;15317;50.360;8.726;2023-02-11T03:21:29;101247.41;;;0.78;100.00
27984;BME280;15317;50.360;8.726;2023-02-11T03:25:38;101230.63;;;0.75;100.00
27984;BME280;15317;50.360;8.726;2023-02-11T03:29:46;101220.84;;;0.74;100.00
27984;BME280;15317;50.360;8.726;2023-02-11T03:33:55;101207.59;;;0.71;100.00
27984;BME280;15317;50.360;8.726;2023-02-11T03:38:00;101200.53;;;0.68;100.00
27984;BME280;15317;50.360;8.726;2023-02-11T03:42:07;101201.53;;;0.66;100.00
27984;BME280;15317;50.360;8.726;2023-02-11T03:46:13;101214.06;;;0.64;100.00
27984;BME280;15317;50.360;8.726;2023-02-11T03:50:18;101203.38;;;0.64;100.00
27984;BME280;15317;50.360;8.726;2023-02-11T03:54:26;101213.19;;;0.63;100.00
27984;BME280;15317;50.360;8.726;2023-02-11T03:58:31;101219.44;;;0.64;100.00
27984;BME280;15317;50.360;8.726;2023-02-11T04:02:35;101230.03;;;0.67;100.00
27984;BME280;15317;50.360;8.726;2023-02-11T04:06:37;101229.09;;;0.68;100.00
27984;BME280;15317;50.360;8.726;2023-02-11T04:10:39;101223.66;;;0.69;100.00
27984;BME280;15317;50.360;8.726;2023-02-11T04:14:42;101237.81;;;0.73;100.00
27984;BME280;15317;50.360;8.726;2023-02-11T04:18:44;101237.59;;;0.79;100.00
27984;BME280;15317;50.360;8.726;2023-02-11T04:22:46;101236.53;;;0.83;100.00
27984;BME280;15317;50.360;8.726;2023-02-11T04:26:48;101230.22;;;0.86;100.00
27984;BME280;15317;50.360;8.726;2023-02-11T04:30:51;101223.03;;;0.88;100.00
27984;BME280;15317;50.360;8.726;2023-02-11T04:34:53;101222.94;;;0.89;100.00
27984;BME280;15317;50.360;8.726;2023-02-11T04:38:55;101221.13;;;0.90;100.00
27984;BME280;15317;50.360;8.726;2023-02-11T04:42:57;101220.91;;;0.96;100.00
27984;BME280;15317;50.360;8.726;2023-02-11T04:47:01;101221.69;;;0.99;100.00
27984;BME280;15317;50.360;8.726;2023-02-11T04:51:03;101226.16;;;0.99;100.00
27984;BME280;15317;50.360;8.726;2023-02-11T04:55:05;101226.13;;;1.00;100.00
27984;BME280;15317;50.360;8.726;2023-02-11T04:59:07;101212.84;;;0.97;100.00
27984;BME280;15317;50.360;8.726;2023-02-11T05:03:11;101207.53;;;0.96;100.00
27984;BME280;15317;50.360;8.726;2023-02-11T05:07:13;101203.19;;;0.93;100.00
27984;BME280;15317;50.360;8.726;2023-02-11T05:11:17;101212.19;;;0.91;100.00
27984;BME280;15317;50.360;8.726;2023-02-11T05:15:19;101214.91;;;0.89;100.00
27984;BME280;15317;50.360;8.726;2023-02-11T05:19:22;101222.00;;;0.90;100.00
27984;BME280;15317;50.360;8.726;2023-02-11T05:23:24;101200.84;;;0.84;100.00
27984;BME280;15317;50.360;8.726;2023-02-11T05:27:26;101207.13;;;0.83;100.00
27984;BME280;15317;50.360;8.726;2023-02-11T05:31:28;101217.03;;;0.81;100.00
27984;BME280;15317;50.360;8.726;2023-02-11T05:35:32;101220.63;;;0.80;100.00
27984;BME280;15317;50.360;8.726;2023-02-11T05:39:34;101211.78;;;0.78;100.00
27984;BME280;15317;50.360;8.726;2023-02-11T05:43:35;101213.53;;;0.79;100.00
27984;BME280;15317;50.360;8.726;2023-02-11T05:47:37;101210.16;;;0.74;100.00
27984;BME280;15317;50.360;8.726;2023-02-11T05:51:41;101219.31;;;0.67;100.00
27984;BME280;15317;50.360;8.726;2023-02-11T05:55:43;101229.28;;;0.62;100.00
27984;BME280;15317;50.360;8.726;2023-02-11T05:59:45;101226.75;;;0.59;100.00
27984;BME280;15317;50.360;8.726;2023-02-11T06:03:47;101224.13;;;0.57;100.00
27984;BME280;15317;50.360;8.726;2023-02-11T06:07:52;101221.50;;;0.56;100.00
27984;BME280;15317;50.360;8.726;2023-02-11T06:11:54;101207.34;;;0.54;100.00
27984;BME280;15317;50.360;8.726;2023-02-11T06:15:56;101200.22;;;0.53;100.00
27984;BME280;15317;50.360;8.726;2023-02-11T06:19:59;101194.06;;;0.51;100.00
27984;BME280;15317;50.360;8.726;2023-02-11T06:24:04;101188.75;;;0.49;100.00
27984;BME280;15317;50.360;8.726;2023-02-11T06:28:07;101186.97;;;0.50;100.00
27984;BME280;15317;50.360;8.726;2023-02-11T06:32:10;101184.41;;;0.47;100.00
27984;BME280;15317;50.360;8.726;2023-02-11T06:36:14;101204.00;;;0.47;100.00
27984;BME280;15317;50.360;8.726;2023-02-11T06:40:18;101189.69;;;0.48;100.00
27984;BME280;15317;50.360;8.726;2023-02-11T06:44:20;101181.63;;;0.50;100.00
27984;BME280;15317;50.360;8.726;2023-02-11T06:48:22;101188.75;;;0.49;100.00
27984;BME280;15317;50.360;8.726;2023-02-11T06:52:24;101203.91;;;0.49;100.00
27984;BME280;15317;50.360;8.726;2023-02-11T06:56:28;101202.94;;;0.51;100.00
27984;BME280;15317;50.360;8.726;2023-02-11T07:00:30;101209.03;;;0.55;100.00
27984;BME280;15317;50.360;8.726;2023-02-11T07:04:32;101208.22;;;0.54;100.00
27984;BME280;15317;50.360;8.726;2023-02-11T07:08:35;101208.91;;;0.59;100.00
27984;BME280;15317;50.360;8.726;2023-02-11T07:12:39;101205.97;;;0.67;100.00
27984;BME280;15317;50.360;8.726;2023-02-11T07:16:41;101201.31;;;0.72;100.00
27984;BME280;15317;50.360;8.726;2023-02-11T07:20:43;101211.91;;;0.75;100.00
27984;BME280;15317;50.360;8.726;2023-02-11T07:24:45;101215.22;;;0.82;100.00
27984;BME280;15317;50.360;8.726;2023-02-11T07:28:49;101227.31;;;0.92;100.00
27984;BME280;15317;50.360;8.726;2023-02-11T07:32:51;101227.72;;;1.04;100.00
27984;BME280;15317;50.360;8.726;2023-02-11T07:36:53;101229.09;;;1.16;100.00
27984;BME280;15317;50.360;8.726;2023-02-11T07:40:58;101242.63;;;1.35;100.00
27984;BME280;15317;50.360;8.726;2023-02-11T07:45:02;101253.94;;;1.43;100.00
27984;BME280;15317;50.360;8.726;2023-02-11T07:49:04;101253.31;;;1.58;100.00
27984;BME280;15317;50.360;8.726;2023-02-11T07:53:06;101247.16;;;1.78;100.00
27984;BME280;15317;50.360;8.726;2023-02-11T07:57:08;101251.75;;;1.97;100.00
27984;BME280;15317;50.360;8.726;2023-02-11T08:01:13;101249.13;;;2.18;100.00
27984;BME280;15317;50.360;8.726;2023-02-11T08:05:15;101267.72;;;2.43;100.00
27984;BME280;15317;50.360;8.726;2023-02-11T08:09:18;101271.66;;;2.54;100.00
27984;BME280;15317;50.360;8.726;2023-02-11T08:13:20;101271.13;;;2.46;100.00
27984;BME280;15317;50.360;8.726;2023-02-11T08:17:24;101275.00;;;2.39;100.00
27984;BME280;15317;50.360;8.726;2023-02-11T08:21:26;101283.09;;;2.17;100.00
27984;BME280;15317;50.360;8.726;2023-02-11T08:25:28;101288.75;;;2.10;100.00
27984;BME280;15317;50.360;8.726;2023-02-11T08:29:30;101285.50;;;2.02;100.00
27984;BME280;15317;50.360;8.726;2023-02-11T08:33:34;101286.25;;;1.83;100.00
27984;BME280;15317;50.360;8.726;2023-02-11T08:37:36;101293.19;;;1.89;100.00
27984;BME280;15317;50.360;8.726;2023-02-11T08:41:38;101296.97;;;1.83;100.00
27984;BME280;15317;50.360;8.726;2023-02-11T08:45:40;101298.59;;;1.87;100.00
27984;BME280;15317;50.360;8.726;2023-02-11T08:49:43;101292.97;;;1.93;100.00
27984;BME280;15317;50.360;8.726;2023-02-11T08:53:46;101292.00;;;1.96;100.00
27984;BME280;15317;50.360;8.726;2023-02-11T08:57:48;101304.94;;;2.07;100.00
27984;BME280;15317;50.360;8.726;2023-02-11T09:01:50;101305.72;;;2.10;100.00
27984;BME280;15317;50.360;8.726;2023-02-11T09:05:53;101305.47;;;2.16;100.00
27984;BME280;15317;50.360;8.726;2023-02-11T09:09:56;101311.69;;;2.38;100.00
27984;BME280;15317;50.360;8.726;2023-02-11T09:13:59;101316.19;;;2.38;100.00
27984;BME280;15317;50.360;8.726;2023-02-11T09:18:02;101319.28;;;2.49;100.00
27984;BME280;15317;50.360;8.726;2023-02-11T09:22:05;101316.72;;;2.46;100.00
27984;BME280;15317;50.360;8.726;2023-02-11T09:26:09;101308.44;;;2.52;100.00
27984;BME280;15317;50.360;8.726;2023-02-11T09:30:11;101304.56;;;2.59;100.00
27984;BME280;15317;50.360;8.726;2023-02-11T09:34:13;101308.69;;;2.66;100.00
27984;BME280;15317;50.360;8.726;2023-02-11T09:38:17;101305.25;;;2.85;100.00
27984;BME280;15317;50.360;8.726;2023-02-11T09:42:38;101310.34;;;2.91;100.00
27984;BME280;15317;50.360;8.726;2023-02-11T09:46:42;101311.53;;;3.04;100.00
27984;BME280;15317;50.360;8.726;2023-02-11T09:50:47;101309.53;;;2.89;100.00
27984;BME280;15317;50.360;8.726;2023-02-11T09:54:54;101323.53;;;2.95;100.00
27984;BME280;15317;50.360;8.726;2023-02-11T09:58:57;101333.28;;;2.98;100.00
27984;BME280;15317;50.360;8.726;2023-02-11T10:03:20;101330.81;;;2.93;100.00
27984;BME280;15317;50.360;8.726;2023-02-11T10:07:27;101319.31;;;3.10;100.00
27984;BME280;15317;50.360;8.726;2023-02-11T10:11:41;101323.59;;;3.14;100.00
27984;BME280;15317;50.360;8.726;2023-02-11T10:15:50;101326.91;;;3.21;100.00
27984;BME280;15317;50.360;8.726;2023-02-11T10:20:03;101328.53;;;3.43;100.00
27984;BME280;15317;50.360;8.726;2023-02-11T10:24:11;101325.91;;;3.42;100.00
27984;BME280;15317;50.360;8.726;2023-02-11T10:28:17;101321.22;;;3.47;100.00
27984;BME280;15317;50.360;8.726;2023-02-11T10:32:27;101328.38;;;3.67;100.00
27984;BME280;15317;50.360;8.726;2023-02-11T10:36:34;101325.97;;;3.79;100.00
27984;BME280;15317;50.360;8.726;2023-02-11T10:40:36;101318.50;;;3.86;100.00
27984;BME280;15317;50.360;8.726;2023-02-11T10:44:44;101328.72;;;3.96;100.00
27984;BME280;15317;50.360;8.726;2023-02-11T10:48:52;101330.09;;;4.05;100.00
27984;BME280;15317;50.360;8.726;2023-02-11T10:53:11;101329.59;;;3.97;100.00
27984;BME280;15317;50.360;8.726;2023-02-11T10:57:17;101332.78;;;4.05;100.00
27984;BME280;15317;50.360;8.726;2023-02-11T11:01:21;101335.66;;;4.02;100.00
27984;BME280;15317;50.360;8.726;2023-02-11T11:05:28;101334.66;;;4.03;100.00
27984;BME280;15317;50.360;8.726;2023-02-11T11:09:44;101340.84;;;4.05;100.00
27984;BME280;15317;50.360;8.726;2023-02-11T11:13:54;101329.97;;;4.08;100.00
27984;BME280;15317;50.360;8.726;2023-02-11T11:18:13;101332.56;;;4.10;100.00
27984;BME280;15317;50.360;8.726;2023-02-11T11:22:20;101335.19;;;4.11;100.00
27984;BME280;15317;50.360;8.726;2023-02-11T11:26:24;101328.22;;;4.07;100.00
27984;BME280;15317;50.360;8.726;2023-02-11T11:30:32;101324.28;;;4.14;100.00
27984;BME280;15317;50.360;8.726;2023-02-11T11:34:37;101336.00;;;4.13;100.00
27984;BME280;15317;50.360;8.726;2023-02-11T11:38:45;101330.41;;;3.99;100.00
27984;BME280;15317;50.360;8.726;2023-02-11T11:43:02;101322.66;;;4.10;100.00
27984;BME280;15317;50.360;8.726;2023-02-11T11:47:18;101319.00;;;4.30;100.00
27984;BME280;15317;50.360;8.726;2023-02-11T11:51:24;101321.63;;;4.50;100.00
27984;BME280;15317;50.360;8.726;2023-02-11T11:55:33;101328.00;;;4.65;100.00
27984;BME280;15317;50.360;8.726;2023-02-11T11:59:37;101324.56;;;4.80;100.00
27984;BME280;15317;50.360;8.726;2023-02-11T12:04:09;101322.91;;;4.95;100.00
27984;BME280;15317;50.360;8.726;2023-02-11T12:08:23;101307.28;;;5.01;100.00
27984;BME280;15317;50.360;8.726;2023-02-11T12:12:39;101310.13;;;5.15;100.00
27984;BME280;15317;50.360;8.726;2023-02-11T12:16:52;101303.88;;;5.15;100.00
27984;BME280;15317;50.360;8.726;2023-02-11T12:21:11;101308.72;;;5.08;100.00
27984;BME280;15317;50.360;8.726;2023-02-11T12:25:25;101316.63;;;5.11;100.00
27984;BME280;15317;50.360;8.726;2023-02-11T12:29:32;101314.63;;;5.15;100.00
27984;BME280;15317;50.360;8.726;2023-02-11T12:33:50;101311.16;;;5.13;100.00
27984;BME280;15317;50.360;8.726;2023-02-11T12:38:16;101316.94;;;5.05;100.00
27984;BME280;15317;50.360;8.726;2023-02-11T12:42:50;101311.69;;;5.20;100.00
27984;BME280;15317;50.360;8.726;2023-02-11T12:47:18;101304.25;;;5.25;100.00
27984;BME280;15317;50.360;8.726;2023-02-11T12:51:35;101302.25;;;5.45;100.00
27984;BME280;15317;50.360;8.726;2023-02-11T12:55:43;101303.50;;;5.71;100.00
27984;BME280;15317;50.360;8.726;2023-02-11T12:59:54;101300.41;;;5.94;100.00
27984;BME280;15317;50.360;8.726;2023-02-11T13:04:04;101299.38;;;6.13;100.00
27984;BME280;15317;50.360;8.726;2023-02-11T13:08:10;101277.25;;;6.22;100.00
27984;BME280;15317;50.360;8.726;2023-02-11T13:12:15;101284.13;;;6.27;100.00
27984;BME280;15317;50.360;8.726;2023-02-11T13:16:39;101278.25;;;6.35;100.00
27984;BME280;15317;50.360;8.726;2023-02-11T13:20:46;101272.88;;;6.35;100.00
27984;BME280;15317;50.360;8.726;2023-02-11T13:24:54;101278.25;;;6.35;100.00
27984;BME280;15317;50.360;8.726;2023-02-11T13:29:10;101278.97;;;6.39;100.00
27984;BME280;15317;50.360;8.726;2023-02-11T13:33:20;101270.00;;;6.38;100.00
27984;BME280;15317;50.360;8.726;2023-02-11T13:37:23;101263.66;;;6.39;100.00
27984;BME280;15317;50.360;8.726;2023-02-11T13:41:29;101266.66;;;6.49;100.00
27984;BME280;15317;50.360;8.726;2023-02-11T13:45:34;101279.66;;;6.42;100.00
27984;BME280;15317;50.360;8.726;2023-02-11T13:49:41;101279.06;;;6.37;100.00
27984;BME280;15317;50.360;8.726;2023-02-11T13:53:54;101272.63;;;6.40;100.00
27984;BME280;15317;50.360;8.726;2023-02-11T13:58:17;101270.88;;;6.39;100.00
27984;BME280;15317;50.360;8.726;2023-02-11T14:02:22;101267.31;;;6.38;100.00
27984;BME280;15317;50.360;8.726;2023-02-11T14:11:48;101270.16;;;6.35;100.00
27984;BME280;15317;50.360;8.726;2023-02-11T14:16:04;101276.56;;;6.34;100.00
27984;BME280;15317;50.360;8.726;2023-02-11T14:20:31;101275.56;;;6.35;100.00
27984;BME280;15317;50.360;8.726;2023-02-11T14:24:47;101285.53;;;6.34;100.00
27984;BME280;15317;50.360;8.726;2023-02-11T14:28:57;101290.81;;;6.36;100.00
27984;BME280;15317;50.360;8.726;2023-02-11T14:37:32;101293.63;;;6.34;100.00
27984;BME280;15317;50.360;8.726;2023-02-11T14:41:40;101298.16;;;6.34;100.00
27984;BME280;15317;50.360;8.726;2023-02-11T14:45:50;101289.06;;;6.35;100.00
27984;BME280;15317;50.360;8.726;2023-02-11T14:49:55;101294.31;;;6.38;100.00
27984;BME280;15317;50.360;8.726;2023-02-11T14:54:00;101299.69;;;6.38;100.00
27984;BME280;15317;50.360;8.726;2023-02-11T14:58:05;101298.91;;;6.36;100.00
27984;BME280;15317;50.360;8.726;2023-02-11T15:02:22;101301.25;;;6.42;100.00
27984;BME280;15317;50.360;8.726;2023-02-11T15:06:29;101309.47;;;6.41;100.00
27984;BME280;15317;50.360;8.726;2023-02-11T15:10:34;101314.50;;;6.31;100.00
27984;BME280;15317;50.360;8.726;2023-02-11T15:14:38;101326.16;;;6.31;100.00
27984;BME280;15317;50.360;8.726;2023-02-11T15:18:45;101325.47;;;6.28;100.00
27984;BME280;15317;50.360;8.726;2023-02-11T15:22:53;101324.78;;;6.24;100.00
27984;BME280;15317;50.360;8.726;2023-02-11T15:26:58;101325.81;;;6.22;100.00
27984;BME280;15317;50.360;8.726;2023-02-11T15:31:02;101340.09;;;6.24;100.00
27984;BME280;15317;50.360;8.726;2023-02-11T15:35:10;101333.16;;;6.20;100.00
27984;BME280;15317;50.360;8.726;2023-02-11T15:39:18;101326.16;;;6.16;100.00
27984;BME280;15317;50.360;8.726;2023-02-11T15:43:21;101324.53;;;6.13;100.00
27984;BME280;15317;50.360;8.726;2023-02-11T15:47:23;101335.22;;;6.15;100.00
27984;BME280;15317;50.360;8.726;2023-02-11T15:51:29;101337.31;;;6.10;100.00
27984;BME280;15317;50.360;8.726;2023-02-11T15:55:32;101339.22;;;6.08;100.00
27984;BME280;15317;50.360;8.726;2023-02-11T15:59:37;101349.25;;;6.06;100.00
27984;BME280;15317;50.360;8.726;2023-02-11T16:03:40;101345.16;;;5.99;100.00
27984;BME280;15317;50.360;8.726;2023-02-11T16:07:46;101344.19;;;6.00;100.00
27984;BME280;15317;50.360;8.726;2023-02-11T16:11:54;101349.13;;;5.91;100.00
27984;BME280;15317;50.360;8.726;2023-02-11T16:15:59;101351.19;;;5.86;100.00
27984;BME280;15317;50.360;8.726;2023-02-11T16:20:05;101358.19;;;5.90;100.00
27984;BME280;15317;50.360;8.726;2023-02-11T16:24:17;101355.78;;;5.84;100.00
27984;BME280;15317;50.360;8.726;2023-02-11T16:28:21;101355.00;;;5.82;100.00
27984;BME280;15317;50.360;8.726;2023-02-11T16:32:24;101361.44;;;5.80;100.00
27984;BME280;15317;50.360;8.726;2023-02-11T16:36:27;101357.09;;;5.77;100.00
27984;BME280;15317;50.360;8.726;2023-02-11T16:40:30;101357.41;;;5.71;100.00
27984;BME280;15317;50.360;8.726;2023-02-11T16:44:32;101353.06;;;5.69;100.00
27984;BME280;15317;50.360;8.726;2023-02-11T16:48:36;101351.56;;;5.63;100.00
27984;BME280;15317;50.360;8.726;2023-02-11T16:52:38;101356.09;;;5.63;100.00
27984;BME280;15317;50.360;8.726;2023-02-11T16:56:42;101359.03;;;5.58;100.00
27984;BME280;15317;50.360;8.726;2023-02-11T17:00:45;101360.59;;;5.62;100.00
27984;BME280;15317;50.360;8.726;2023-02-11T17:04:48;101370.59;;;5.60;100.00
27984;BME280;15317;50.360;8.726;2023-02-11T17:08:50;101361.97;;;5.53;100.00
27984;BME280;15317;50.360;8.726;2023-02-11T17:12:53;101372.66;;;5.55;100.00
27984;BME280;15317;50.360;8.726;2023-02-11T17:16:55;101375.69;;;5.49;100.00
27984;BME280;15317;50.360;8.726;2023-02-11T17:20:57;101375.69;;;5.49;100.00
27984;BME280;15317;50.360;8.726;2023-02-11T17:25:01;101373.00;;;5.49;100.00
27984;BME280;15317;50.360;8.726;2023-02-11T17:29:05;101375.78;;;5.47;100.00
27984;BME280;15317;50.360;8.726;2023-02-11T17:33:07;101384.66;;;5.49;100.00
27984;BME280;15317;50.360;8.726;2023-02-11T17:37:09;101384.91;;;5.45;100.00
27984;BME280;15317;50.360;8.726;2023-02-11T17:41:11;101376.97;;;5.42;100.00
27984;BME280;15317;50.360;8.726;2023-02-11T17:45:15;101378.72;;;5.43;100.00
27984;BME280;15317;50.360;8.726;2023-02-11T17:49:16;101393.00;;;5.45;100.00
27984;BME280;15317;50.360;8.726;2023-02-11T17:53:20;101394.00;;;5.42;100.00
27984;BME280;15317;50.360;8.726;2023-02-11T17:57:21;101391.41;;;5.41;100.00
27984;BME280;15317;50.360;8.726;2023-02-11T18:01:27;101396.78;;;5.41;100.00
27984;BME280;15317;50.360;8.726;2023-02-11T18:05:33;101394.09;;;5.41;100.00
27984;BME280;15317;50.360;8.726;2023-02-11T18:09:36;101404.94;;;5.39;100.00
27984;BME280;15317;50.360;8.726;2023-02-11T18:13:38;101399.72;;;5.36;100.00
27984;BME280;15317;50.360;8.726;2023-02-11T18:17:42;101403.13;;;5.40;100.00
27984;BME280;15317;50.360;8.726;2023-02-11T18:21:44;101404.25;;;5.36;100.00
27984;BME280;15317;50.360;8.726;2023-02-11T18:25:48;101401.47;;;5.37;100.00
27984;BME280;15317;50.360;8.726;2023-02-11T18:29:50;101400.59;;;5.37;100.00
27984;BME280;15317;50.360;8.726;2023-02-11T18:33:53;101409.63;;;5.36;100.00
27984;BME280;15317;50.360;8.726;2023-02-11T18:37:56;101413.47;;;5.32;100.00
27984;BME280;15317;50.360;8.726;2023-02-11T18:41:58;101420.75;;;5.30;100.00
27984;BME280;15317;50.360;8.726;2023-02-11T18:46:00;101411.72;;;5.31;100.00
27984;BME280;15317;50.360;8.726;2023-02-11T18:50:06;101419.78;;;5.31;100.00
27984;BME280;15317;50.360;8.726;2023-02-11T18:54:09;101417.09;;;5.31;100.00
27984;BME280;15317;50.360;8.726;2023-02-11T18:58:11;101428.81;;;5.30;100.00
27984;BME280;15317;50.360;8.726;2023-02-11T19:02:13;101426.13;;;5.30;100.00
27984;BME280;15317;50.360;8.726;2023-02-11T19:06:18;101428.75;;;5.31;100.00
27984;BME280;15317;50.360;8.726;2023-02-11T19:10:20;101429.75;;;5.29;100.00
27984;BME280;15317;50.360;8.726;2023-02-11T19:14:24;101440.69;;;5.26;100.00
27984;BME280;15317;50.360;8.726;2023-02-11T19:18:27;101440.88;;;5.23;100.00
27984;BME280;15317;50.360;8.726;2023-02-11T19:22:30;101441.00;;;5.20;100.00
27984;BME280;15317;50.360;8.726;2023-02-11T19:26:33;101433.72;;;5.22;100.00
27984;BME280;15317;50.360;8.726;2023-02-11T19:30:35;101433.59;;;5.25;100.00
27984;BME280;15317;50.360;8.726;2023-02-11T19:34:37;101426.44;;;5.24;100.00
27984;BME280;15317;50.360;8.726;2023-02-11T19:38:44;101431.03;;;5.22;100.00
27984;BME280;15317;50.360;8.726;2023-02-11T19:42:46;101423.25;;;5.15;100.00
27984;BME280;15317;50.360;8.726;2023-02-11T19:46:48;101428.66;;;5.15;100.00
27984;BME280;15317;50.360;8.726;2023-02-11T19:50:53;101445.84;;;5.13;100.00
27984;BME280;15317;50.360;8.726;2023-02-11T19:54:57;101440.63;;;5.10;100.00
27984;BME280;15317;50.360;8.726;2023-02-11T19:59:01;101445.84;;;5.13;100.00
27984;BME280;15317;50.360;8.726;2023-02-11T20:03:03;101456.59;;;5.13;100.00
27984;BME280;15317;50.360;8.726;2023-02-11T20:07:06;101456.72;;;5.11;100.00
27984;BME280;15317;50.360;8.726;2023-02-11T20:11:11;101455.91;;;5.09;100.00
27984;BME280;15317;50.360;8.726;2023-02-11T20:15:13;101443.38;;;5.08;100.00
27984;BME280;15317;50.360;8.726;2023-02-11T20:19:17;101448.69;;;5.10;100.00
27984;BME280;15317;50.360;8.726;2023-02-11T20:23:20;101447.03;;;5.07;100.00
27984;BME280;15317;50.360;8.726;2023-02-11T20:27:24;101445.28;;;5.06;100.00
27984;BME280;15317;50.360;8.726;2023-02-11T20:31:29;101451.59;;;5.05;100.00
27984;BME280;15317;50.360;8.726;2023-02-11T20:35:31;101452.72;;;5.01;100.00
27984;BME280;15317;50.360;8.726;2023-02-11T20:39:33;101440.38;;;4.97;100.00
27984;BME280;15317;50.360;8.726;2023-02-11T20:43:38;101441.44;;;4.93;100.00
27984;BME280;15317;50.360;8.726;2023-02-11T20:47:40;101453.84;;;4.97;100.00
27984;BME280;15317;50.360;8.726;2023-02-11T20:51:42;101446.84;;;4.93;100.00
27984;BME280;15317;50.360;8.726;2023-02-11T20:55:44;101459.84;;;5.02;100.00
27984;BME280;15317;50.360;8.726;2023-02-11T20:59:48;101458.09;;;5.01;100.00
27984;BME280;15317;50.360;8.726;2023-02-11T21:03:51;101466.13;;;5.03;100.00
27984;BME280;15317;50.360;8.726;2023-02-11T21:07:54;101475.94;;;5.04;100.00
27984;BME280;15317;50.360;8.726;2023-02-11T21:11:56;101485.91;;;5.02;100.00
27984;BME280;15317;50.360;8.726;2023-02-11T21:15:59;101479.34;;;5.07;100.00
27984;BME280;15317;50.360;8.726;2023-02-11T21:20:02;101484.50;;;5.12;100.00
27984;BME280;15317;50.360;8.726;2023-02-11T21:24:04;101501.31;;;5.17;100.00
27984;BME280;15317;50.360;8.726;2023-02-11T21:28:06;101502.97;;;5.20;100.00
27984;BME280;15317;50.360;8.726;2023-02-11T21:32:10;101498.56;;;5.19;100.00
27984;BME280;15317;50.360;8.726;2023-02-11T21:36:12;101505.66;;;5.20;100.00
27984;BME280;15317;50.360;8.726;2023-02-11T21:40:15;101511.34;;;5.13;100.00